Milan, Minnesota
Current Conditions -  °F | °C
As of 8:55 AM on Tuesday 21 Oct 2014 (Local Time) from KAQP Reporting Station
Clear Clear  
Wind Chill: 36°   Ceiling: Unl
Heat Index: 43°   Visibility: 10mi
Dew Point: 39°   Wind: 13mph
Humidity: 87%   Direction: 130°SE
Pressure: 30.09"   Gusts: 17mph
Location:  45.11°N, 95.91°W
Report Text: KAQP 211355Z AUTO 13011G15KT 10SM CLR 06/04 A3009 RMK AO2
Loading
Personal Weather Stations






























Interactive Weather Map
Tropical Storm Tracking
New forecast layout! Learn more

10-Day Weather Forecast

Advertisements
Track Severe Weather on mobile